sensor_id;sensor_type;location;lat;lon;timestamp;P1;durP1;ratioP1;P2;durP2;ratioP2
12707;SDS011;6418;50.824;4.718;2023-03-14T00:02:25;12.17;;;3.80;;
12707;SDS011;6418;50.824;4.718;2023-03-14T00:04:53;8.87;;;3.80;;
12707;SDS011;6418;50.824;4.718;2023-03-14T00:07:20;10.70;;;3.60;;
12707;SDS011;6418;50.824;4.718;2023-03-14T00:09:49;13.90;;;4.27;;
12707;SDS011;6418;50.824;4.718;2023-03-14T00:12:16;10.77;;;3.97;;
12707;SDS011;6418;50.824;4.718;2023-03-14T00:14:44;11.80;;;3.80;;
12707;SDS011;6418;50.824;4.718;2023-03-14T00:17:11;13.77;;;4.60;;
12707;SDS011;6418;50.824;4.718;2023-03-14T00:19:38;16.63;;;4.33;;
12707;SDS011;6418;50.824;4.718;2023-03-14T00:22:05;13.43;;;4.37;;
12707;SDS011;6418;50.824;4.718;2023-03-14T00:24:32;17.00;;;4.20;;
12707;SDS011;6418;50.824;4.718;2023-03-14T00:26:59;13.63;;;4.10;;
12707;SDS011;6418;50.824;4.718;2023-03-14T00:29:26;14.63;;;4.10;;
12707;SDS011;6418;50.824;4.718;2023-03-14T00:31:54;13.47;;;4.30;;
12707;SDS011;6418;50.824;4.718;2023-03-14T00:34:21;14.03;;;4.10;;
12707;SDS011;6418;50.824;4.718;2023-03-14T00:36:48;14.03;;;4.30;;
12707;SDS011;6418;50.824;4.718;2023-03-14T00:39:15;12.73;;;4.20;;
12707;SDS011;6418;50.824;4.718;2023-03-14T00:41:42;10.57;;;3.77;;
12707;SDS011;6418;50.824;4.718;2023-03-14T00:44:08;14.00;;;4.10;;
12707;SDS011;6418;50.824;4.718;2023-03-14T00:46:35;12.60;;;4.20;;
12707;SDS011;6418;50.824;4.718;2023-03-14T00:49:04;10.93;;;3.90;;
12707;SDS011;6418;50.824;4.718;2023-03-14T00:51:30;13.93;;;3.90;;
12707;SDS011;6418;50.824;4.718;2023-03-14T00:53:57;13.77;;;4.03;;
12707;SDS011;6418;50.824;4.718;2023-03-14T00:56:25;15.23;;;4.40;;
12707;SDS011;6418;50.824;4.718;2023-03-14T00:58:53;13.23;;;4.37;;
12707;SDS011;6418;50.824;4.718;2023-03-14T01:01:20;12.60;;;3.90;;
12707;SDS011;6418;50.824;4.718;2023-03-14T01:03:49;16.87;;;4.30;;
12707;SDS011;6418;50.824;4.718;2023-03-14T01:06:19;14.20;;;3.90;;
12707;SDS011;6418;50.824;4.718;2023-03-14T01:08:47;11.10;;;3.80;;
12707;SDS011;6418;50.824;4.718;2023-03-14T01:11:15;12.17;;;4.13;;
12707;SDS011;6418;50.824;4.718;2023-03-14T01:13:44;14.87;;;4.20;;
12707;SDS011;6418;50.824;4.718;2023-03-14T01:16:11;17.90;;;4.23;;
12707;SDS011;6418;50.824;4.718;2023-03-14T01:18:39;13.13;;;4.27;;
12707;SDS011;6418;50.824;4.718;2023-03-14T01:21:10;14.83;;;4.20;;
12707;SDS011;6418;50.824;4.718;2023-03-14T01:23:39;15.27;;;4.20;;
12707;SDS011;6418;50.824;4.718;2023-03-14T01:26:08;14.37;;;4.30;;
12707;SDS011;6418;50.824;4.718;2023-03-14T01:28:36;15.00;;;4.43;;
12707;SDS011;6418;50.824;4.718;2023-03-14T01:31:03;13.43;;;4.50;;
12707;SDS011;6418;50.824;4.718;2023-03-14T01:33:30;15.33;;;4.67;;
12707;SDS011;6418;50.824;4.718;2023-03-14T01:35:57;19.13;;;4.60;;
12707;SDS011;6418;50.824;4.718;2023-03-14T01:38:27;14.30;;;4.40;;
12707;SDS011;6418;50.824;4.718;2023-03-14T01:40:55;17.83;;;4.50;;
12707;SDS011;6418;50.824;4.718;2023-03-14T01:43:22;12.30;;;4.37;;
12707;SDS011;6418;50.824;4.718;2023-03-14T01:48:51;12.20;;;4.27;;
12707;SDS011;6418;50.824;4.718;2023-03-14T01:51:29;14.33;;;4.50;;
12707;SDS011;6418;50.824;4.718;2023-03-14T01:54:00;12.47;;;4.03;;
12707;SDS011;6418;50.824;4.718;2023-03-14T01:56:33;16.53;;;4.27;;
12707;SDS011;6418;50.824;4.718;2023-03-14T01:59:02;15.23;;;4.20;;
12707;SDS011;6418;50.824;4.718;2023-03-14T02:01:32;12.73;;;3.97;;
12707;SDS011;6418;50.824;4.718;2023-03-14T02:04:01;15.53;;;4.10;;
12707;SDS011;6418;50.824;4.718;2023-03-14T02:06:33;12.40;;;3.97;;
12707;SDS011;6418;50.824;4.718;2023-03-14T02:09:05;11.40;;;3.83;;
12707;SDS011;6418;50.824;4.718;2023-03-14T02:11:33;12.57;;;3.80;;
12707;SDS011;6418;50.824;4.718;2023-03-14T02:14:00;11.43;;;3.80;;
12707;SDS011;6418;50.824;4.718;2023-03-14T02:16:28;12.07;;;3.90;;
12707;SDS011;6418;50.824;4.718;2023-03-14T02:18:56;10.33;;;3.67;;
12707;SDS011;6418;50.824;4.718;2023-03-14T02:21:23;10.17;;;3.70;;
12707;SDS011;6418;50.824;4.718;2023-03-14T02:24:03;12.40;;;3.80;;
12707;SDS011;6418;50.824;4.718;2023-03-14T02:26:38;11.87;;;3.80;;
12707;SDS011;6418;50.824;4.718;2023-03-14T02:29:08;13.87;;;4.17;;
12707;SDS011;6418;50.824;4.718;2023-03-14T02:31:35;13.00;;;4.00;;
12707;SDS011;6418;50.824;4.718;2023-03-14T02:34:02;15.43;;;4.00;;
12707;SDS011;6418;50.824;4.718;2023-03-14T02:36:30;14.23;;;4.27;;
12707;SDS011;6418;50.824;4.718;2023-03-14T02:39:10;18.00;;;4.47;;
12707;SDS011;6418;50.824;4.718;2023-03-14T02:41:41;16.47;;;4.10;;
12707;SDS011;6418;50.824;4.718;2023-03-14T02:44:11;15.60;;;4.10;;
12707;SDS011;6418;50.824;4.718;2023-03-14T02:46:38;17.90;;;4.37;;
12707;SDS011;6418;50.824;4.718;2023-03-14T02:49:06;14.57;;;3.87;;
12707;SDS011;6418;50.824;4.718;2023-03-14T02:51:35;15.23;;;4.17;;
12707;SDS011;6418;50.824;4.718;2023-03-14T02:54:03;13.50;;;4.27;;
12707;SDS011;6418;50.824;4.718;2023-03-14T02:56:30;15.43;;;3.83;;
12707;SDS011;6418;50.824;4.718;2023-03-14T02:58:57;16.23;;;4.30;;
12707;SDS011;6418;50.824;4.718;2023-03-14T03:01:25;14.53;;;4.63;;
12707;SDS011;6418;50.824;4.718;2023-03-14T03:03:53;17.53;;;4.90;;
12707;SDS011;6418;50.824;4.718;2023-03-14T03:06:19;17.57;;;4.93;;
12707;SDS011;6418;50.824;4.718;2023-03-14T03:08:46;20.00;;;5.50;;
12707;SDS011;6418;50.824;4.718;2023-03-14T03:11:13;19.90;;;6.00;;
12707;SDS011;6418;50.824;4.718;2023-03-14T03:13:40;23.97;;;6.70;;
12707;SDS011;6418;50.824;4.718;2023-03-14T03:16:07;20.40;;;6.90;;
12707;SDS011;6418;50.824;4.718;2023-03-14T03:18:36;21.93;;;7.33;;
12707;SDS011;6418;50.824;4.718;2023-03-14T03:21:03;27.90;;;8.20;;
12707;SDS011;6418;50.824;4.718;2023-03-14T03:23:32;28.57;;;8.37;;
12707;SDS011;6418;50.824;4.718;2023-03-14T03:25:59;22.10;;;8.20;;
12707;SDS011;6418;50.824;4.718;2023-03-14T03:28:27;27.73;;;8.07;;
12707;SDS011;6418;50.824;4.718;2023-03-14T03:30:54;26.63;;;7.83;;
12707;SDS011;6418;50.824;4.718;2023-03-14T03:33:21;21.13;;;7.33;;
12707;SDS011;6418;50.824;4.718;2023-03-14T03:35:50;23.10;;;7.23;;
12707;SDS011;6418;50.824;4.718;2023-03-14T03:38:17;24.20;;;7.63;;
12707;SDS011;6418;50.824;4.718;2023-03-14T03:40:45;22.63;;;6.70;;
12707;SDS011;6418;50.824;4.718;2023-03-14T03:43:12;22.43;;;6.80;;
12707;SDS011;6418;50.824;4.718;2023-03-14T03:45:39;20.83;;;6.70;;
12707;SDS011;6418;50.824;4.718;2023-03-14T03:48:05;19.87;;;6.53;;
12707;SDS011;6418;50.824;4.718;2023-03-14T03:50:33;19.73;;;6.50;;
12707;SDS011;6418;50.824;4.718;2023-03-14T03:53:01;20.40;;;6.77;;
12707;SDS011;6418;50.824;4.718;2023-03-14T03:55:28;22.67;;;7.03;;
12707;SDS011;6418;50.824;4.718;2023-03-14T03:57:55;20.70;;;6.43;;
12707;SDS011;6418;50.824;4.718;2023-03-14T04:00:22;17.43;;;6.70;;
12707;SDS011;6418;50.824;4.718;2023-03-14T04:02:49;24.23;;;7.27;;
12707;SDS011;6418;50.824;4.718;2023-03-14T04:05:16;24.57;;;6.63;;
12707;SDS011;6418;50.824;4.718;2023-03-14T04:07:43;17.77;;;6.70;;
12707;SDS011;6418;50.824;4.718;2023-03-14T04:10:11;17.23;;;6.67;;
12707;SDS011;6418;50.824;4.718;2023-03-14T04:12:38;22.33;;;6.80;;
12707;SDS011;6418;50.824;4.718;2023-03-14T04:15:05;19.03;;;6.47;;
12707;SDS011;6418;50.824;4.718;2023-03-14T04:17:33;20.23;;;7.03;;
12707;SDS011;6418;50.824;4.718;2023-03-14T04:20:00;22.07;;;6.43;;
12707;SDS011;6418;50.824;4.718;2023-03-14T04:22:28;18.00;;;6.83;;
12707;SDS011;6418;50.824;4.718;2023-03-14T04:24:55;23.93;;;6.93;;
12707;SDS011;6418;50.824;4.718;2023-03-14T04:27:24;20.90;;;6.77;;
12707;SDS011;6418;50.824;4.718;2023-03-14T04:29:51;17.90;;;6.17;;
12707;SDS011;6418;50.824;4.718;2023-03-14T04:32:17;18.43;;;6.13;;
12707;SDS011;6418;50.824;4.718;2023-03-14T04:34:45;17.10;;;6.60;;
12707;SDS011;6418;50.824;4.718;2023-03-14T04:37:11;19.97;;;6.50;;
12707;SDS011;6418;50.824;4.718;2023-03-14T04:39:38;16.73;;;6.07;;
12707;SDS011;6418;50.824;4.718;2023-03-14T04:42:05;17.77;;;5.90;;
12707;SDS011;6418;50.824;4.718;2023-03-14T04:44:34;18.67;;;6.30;;
12707;SDS011;6418;50.824;4.718;2023-03-14T04:47:00;14.20;;;5.73;;
12707;SDS011;6418;50.824;4.718;2023-03-14T04:49:27;15.87;;;6.30;;
12707;SDS011;6418;50.824;4.718;2023-03-14T04:51:54;15.60;;;5.80;;
12707;SDS011;6418;50.824;4.718;2023-03-14T04:54:21;16.57;;;5.97;;
12707;SDS011;6418;50.824;4.718;2023-03-14T04:56:48;15.07;;;5.83;;
12707;SDS011;6418;50.824;4.718;2023-03-14T04:59:15;13.63;;;5.53;;
12707;SDS011;6418;50.824;4.718;2023-03-14T05:01:43;17.53;;;5.50;;
12707;SDS011;6418;50.824;4.718;2023-03-14T05:04:10;13.20;;;5.47;;
12707;SDS011;6418;50.824;4.718;2023-03-14T05:06:37;15.13;;;5.30;;
12707;SDS011;6418;50.824;4.718;2023-03-14T05:09:04;15.97;;;5.53;;
12707;SDS011;6418;50.824;4.718;2023-03-14T05:11:31;17.73;;;5.80;;
12707;SDS011;6418;50.824;4.718;2023-03-14T05:13:58;16.17;;;5.60;;
12707;SDS011;6418;50.824;4.718;2023-03-14T05:16:25;14.77;;;5.53;;
12707;SDS011;6418;50.824;4.718;2023-03-14T05:18:54;12.87;;;5.67;;
12707;SDS011;6418;50.824;4.718;2023-03-14T05:21:21;18.43;;;6.03;;
12707;SDS011;6418;50.824;4.718;2023-03-14T05:23:47;13.23;;;5.97;;
12707;SDS011;6418;50.824;4.718;2023-03-14T05:26:14;13.97;;;5.40;;
12707;SDS011;6418;50.824;4.718;2023-03-14T05:28:42;11.97;;;5.23;;
12707;SDS011;6418;50.824;4.718;2023-03-14T05:31:09;12.47;;;5.83;;
12707;SDS011;6418;50.824;4.718;2023-03-14T05:33:36;14.07;;;5.33;;
12707;SDS011;6418;50.824;4.718;2023-03-14T05:36:05;12.97;;;5.47;;
12707;SDS011;6418;50.824;4.718;2023-03-14T05:38:33;13.57;;;5.50;;
12707;SDS011;6418;50.824;4.718;2023-03-14T05:40:59;11.10;;;5.50;;
12707;SDS011;6418;50.824;4.718;2023-03-14T05:43:26;13.20;;;5.90;;
12707;SDS011;6418;50.824;4.718;2023-03-14T05:45:53;15.13;;;6.13;;
12707;SDS011;6418;50.824;4.718;2023-03-14T05:48:20;13.13;;;6.30;;
12707;SDS011;6418;50.824;4.718;2023-03-14T05:50:47;14.93;;;6.50;;
12707;SDS011;6418;50.824;4.718;2023-03-14T05:53:15;16.23;;;6.40;;
12707;SDS011;6418;50.824;4.718;2023-03-14T05:55:42;14.20;;;7.00;;
12707;SDS011;6418;50.824;4.718;2023-03-14T05:58:09;14.67;;;6.70;;
12707;SDS011;6418;50.824;4.718;2023-03-14T06:00:36;19.43;;;7.10;;
12707;SDS011;6418;50.824;4.718;2023-03-14T06:03:03;15.80;;;6.63;;
12707;SDS011;6418;50.824;4.718;2023-03-14T06:05:29;15.87;;;7.13;;
12707;SDS011;6418;50.824;4.718;2023-03-14T06:07:56;16.63;;;6.97;;
12707;SDS011;6418;50.824;4.718;2023-03-14T06:10:25;16.10;;;6.97;;
12707;SDS011;6418;50.824;4.718;2023-03-14T06:12:51;15.83;;;6.90;;
12707;SDS011;6418;50.824;4.718;2023-03-14T06:15:18;15.93;;;7.40;;
12707;SDS011;6418;50.824;4.718;2023-03-14T06:17:45;17.00;;;6.93;;
12707;SDS011;6418;50.824;4.718;2023-03-14T06:20:13;18.50;;;7.10;;
12707;SDS011;6418;50.824;4.718;2023-03-14T06:22:40;15.70;;;7.10;;
12707;SDS011;6418;50.824;4.718;2023-03-14T06:25:09;15.83;;;7.27;;
12707;SDS011;6418;50.824;4.718;2023-03-14T06:27:37;15.57;;;7.47;;
12707;SDS011;6418;50.824;4.718;2023-03-14T06:30:04;16.93;;;7.03;;
12707;SDS011;6418;50.824;4.718;2023-03-14T06:32:32;15.37;;;7.27;;
12707;SDS011;6418;50.824;4.718;2023-03-14T06:34:59;17.97;;;7.50;;
12707;SDS011;6418;50.824;4.718;2023-03-14T06:37:27;18.27;;;7.30;;
12707;SDS011;6418;50.824;4.718;2023-03-14T06:39:54;16.13;;;7.70;;
12707;SDS011;6418;50.824;4.718;2023-03-14T06:42:21;17.80;;;7.50;;
12707;SDS011;6418;50.824;4.718;2023-03-14T06:44:49;17.37;;;7.90;;
12707;SDS011;6418;50.824;4.718;2023-03-14T06:47:16;18.73;;;8.30;;
12707;SDS011;6418;50.824;4.718;2023-03-14T06:49:43;19.50;;;7.67;;
12707;SDS011;6418;50.824;4.718;2023-03-14T06:52:10;18.93;;;7.80;;
12707;SDS011;6418;50.824;4.718;2023-03-14T06:54:37;25.43;;;8.07;;
12707;SDS011;6418;50.824;4.718;2023-03-14T06:57:04;19.17;;;8.10;;
12707;SDS011;6418;50.824;4.718;2023-03-14T06:59:31;18.73;;;8.37;;
12707;SDS011;6418;50.824;4.718;2023-03-14T07:01:59;19.07;;;8.40;;
12707;SDS011;6418;50.824;4.718;2023-03-14T07:04:26;20.00;;;8.57;;
12707;SDS011;6418;50.824;4.718;2023-03-14T07:06:54;19.80;;;8.53;;
12707;SDS011;6418;50.824;4.718;2023-03-14T07:09:21;19.57;;;8.20;;
12707;SDS011;6418;50.824;4.718;2023-03-14T07:11:48;17.17;;;8.00;;
12707;SDS011;6418;50.824;4.718;2023-03-14T07:14:14;16.20;;;7.43;;
12707;SDS011;6418;50.824;4.718;2023-03-14T07:16:41;10.87;;;4.87;;
12707;SDS011;6418;50.824;4.718;2023-03-14T07:19:10;7.77;;;3.60;;
12707;SDS011;6418;50.824;4.718;2023-03-14T07:42:57;10.67;;;5.20;;
12707;SDS011;6418;50.824;4.718;2023-03-14T07:45:24;12.63;;;5.40;;
12707;SDS011;6418;50.824;4.718;2023-03-14T07:47:51;13.13;;;6.27;;
12707;SDS011;6418;50.824;4.718;2023-03-14T07:50:22;12.20;;;6.17;;
12707;SDS011;6418;50.824;4.718;2023-03-14T07:52:49;13.80;;;6.63;;
12707;SDS011;6418;50.824;4.718;2023-03-14T07:55:16;12.57;;;6.20;;
12707;SDS011;6418;50.824;4.718;2023-03-14T07:57:43;12.20;;;6.00;;
12707;SDS011;6418;50.824;4.718;2023-03-14T08:00:12;13.33;;;5.70;;
12707;SDS011;6418;50.824;4.718;2023-03-14T08:02:40;13.30;;;5.63;;
12707;SDS011;6418;50.824;4.718;2023-03-14T08:05:07;11.90;;;5.60;;
12707;SDS011;6418;50.824;4.718;2023-03-14T08:07:35;12.27;;;5.83;;
12707;SDS011;6418;50.824;4.718;2023-03-14T08:10:02;11.83;;;5.60;;
12707;SDS011;6418;50.824;4.718;2023-03-14T08:12:29;12.10;;;5.70;;
12707;SDS011;6418;50.824;4.718;2023-03-14T08:14:56;12.93;;;6.40;;
12707;SDS011;6418;50.824;4.718;2023-03-14T08:17:26;14.57;;;7.00;;
12707;SDS011;6418;50.824;4.718;2023-03-14T08:19:53;11.77;;;6.27;;
12707;SDS011;6418;50.824;4.718;2023-03-14T08:22:19;15.90;;;6.40;;
12707;SDS011;6418;50.824;4.718;2023-03-14T08:24:46;13.07;;;6.33;;
12707;SDS011;6418;50.824;4.718;2023-03-14T08:27:13;16.97;;;6.20;;
12707;SDS011;6418;50.824;4.718;2023-03-14T08:29:40;10.17;;;5.10;;
12707;SDS011;6418;50.824;4.718;2023-03-14T08:32:07;12.10;;;5.43;;
12707;SDS011;6418;50.824;4.718;2023-03-14T08:34:35;9.50;;;5.27;;
12707;SDS011;6418;50.824;4.718;2023-03-14T08:37:04;9.53;;;4.77;;
12707;SDS011;6418;50.824;4.718;2023-03-14T08:39:31;9.23;;;4.90;;
12707;SDS011;6418;50.824;4.718;2023-03-14T08:41:58;11.23;;;5.70;;
12707;SDS011;6418;50.824;4.718;2023-03-14T08:44:25;11.70;;;5.83;;
12707;SDS011;6418;50.824;4.718;2023-03-14T08:46:52;12.87;;;6.20;;
12707;SDS011;6418;50.824;4.718;2023-03-14T08:49:19;12.57;;;6.73;;
12707;SDS011;6418;50.824;4.718;2023-03-14T08:51:47;16.70;;;7.13;;
12707;SDS011;6418;50.824;4.718;2023-03-14T08:54:14;14.50;;;6.97;;
12707;SDS011;6418;50.824;4.718;2023-03-14T08:56:41;15.97;;;6.93;;
12707;SDS011;6418;50.824;4.718;2023-03-14T08:59:08;17.10;;;7.73;;
12707;SDS011;6418;50.824;4.718;2023-03-14T09:01:36;14.83;;;7.43;;
12707;SDS011;6418;50.824;4.718;2023-03-14T09:04:03;13.37;;;6.80;;
12707;SDS011;6418;50.824;4.718;2023-03-14T09:06:30;21.27;;;7.83;;
12707;SDS011;6418;50.824;4.718;2023-03-14T09:08:58;15.07;;;7.60;;
12707;SDS011;6418;50.824;4.718;2023-03-14T09:11:25;15.77;;;7.53;;
12707;SDS011;6418;50.824;4.718;2023-03-14T09:13:52;14.43;;;7.20;;
12707;SDS011;6418;50.824;4.718;2023-03-14T09:16:18;16.97;;;8.17;;
12707;SDS011;6418;50.824;4.718;2023-03-14T09:18:45;15.80;;;7.30;;
12707;SDS011;6418;50.824;4.718;2023-03-14T09:21:12;14.83;;;7.80;;
12707;SDS011;6418;50.824;4.718;2023-03-14T09:23:39;17.30;;;7.23;;
12707;SDS011;6418;50.824;4.718;2023-03-14T09:26:08;16.03;;;7.83;;
12707;SDS011;6418;50.824;4.718;2023-03-14T09:28:34;16.20;;;8.10;;
12707;SDS011;6418;50.824;4.718;2023-03-14T09:31:05;17.97;;;7.70;;
12707;SDS011;6418;50.824;4.718;2023-03-14T09:33:33;14.33;;;7.20;;
12707;SDS011;6418;50.824;4.718;2023-03-14T09:36:00;16.83;;;7.50;;
12707;SDS011;6418;50.824;4.718;2023-03-14T09:38:27;11.80;;;6.63;;
12707;SDS011;6418;50.824;4.718;2023-03-14T09:40:54;16.17;;;7.73;;
12707;SDS011;6418;50.824;4.718;2023-03-14T09:43:25;14.73;;;7.13;;
12707;SDS011;6418;50.824;4.718;2023-03-14T09:45:54;13.47;;;6.50;;
12707;SDS011;6418;50.824;4.718;2023-03-14T09:48:26;15.83;;;6.73;;
12707;SDS011;6418;50.824;4.718;2023-03-14T09:50:56;17.40;;;6.60;;
12707;SDS011;6418;50.824;4.718;2023-03-14T09:53:26;19.07;;;7.10;;
12707;SDS011;6418;50.824;4.718;2023-03-14T09:56:01;16.57;;;6.93;;
12707;SDS011;6418;50.824;4.718;2023-03-14T09:58:29;16.27;;;7.10;;
12707;SDS011;6418;50.824;4.718;2023-03-14T10:00:56;17.53;;;6.83;;
12707;SDS011;6418;50.824;4.718;2023-03-14T10:03:26;17.80;;;7.03;;
12707;SDS011;6418;50.824;4.718;2023-03-14T10:05:57;18.20;;;7.50;;
12707;SDS011;6418;50.824;4.718;2023-03-14T10:08:24;19.20;;;7.77;;
12707;SDS011;6418;50.824;4.718;2023-03-14T10:10:52;19.83;;;7.37;;
12707;SDS011;6418;50.824;4.718;2023-03-14T10:13:20;21.03;;;7.03;;
12707;SDS011;6418;50.824;4.718;2023-03-14T10:15:52;18.80;;;7.47;;
12707;SDS011;6418;50.824;4.718;2023-03-14T10:18:22;18.23;;;6.87;;
12707;SDS011;6418;50.824;4.718;2023-03-14T10:21:00;14.47;;;6.63;;
12707;SDS011;6418;50.824;4.718;2023-03-14T10:23:30;18.03;;;8.63;;
12707;SDS011;6418;50.824;4.718;2023-03-14T10:26:00;20.03;;;7.83;;
12707;SDS011;6418;50.824;4.718;2023-03-14T10:28:32;19.97;;;7.40;;
12707;SDS011;6418;50.824;4.718;2023-03-14T10:31:02;17.43;;;7.20;;
12707;SDS011;6418;50.824;4.718;2023-03-14T10:33:30;18.17;;;6.60;;
12707;SDS011;6418;50.824;4.718;2023-03-14T10:35:59;16.93;;;6.97;;
12707;SDS011;6418;50.824;4.718;2023-03-14T10:38:28;17.17;;;7.40;;
12707;SDS011;6418;50.824;4.718;2023-03-14T10:40:56;23.97;;;7.20;;
12707;SDS011;6418;50.824;4.718;2023-03-14T10:43:25;16.63;;;6.77;;
12707;SDS011;6418;50.824;4.718;2023-03-14T10:45:54;13.47;;;5.77;;
12707;SDS011;6418;50.824;4.718;2023-03-14T10:48:29;15.33;;;6.33;;
12707;SDS011;6418;50.824;4.718;2023-03-14T10:50:58;21.23;;;6.43;;
12707;SDS011;6418;50.824;4.718;2023-03-14T10:53:32;15.10;;;5.90;;
12707;SDS011;6418;50.824;4.718;2023-03-14T10:56:05;15.60;;;6.33;;
12707;SDS011;6418;50.824;4.718;2023-03-14T10:58:33;18.40;;;6.43;;
12707;SDS011;6418;50.824;4.718;2023-03-14T11:01:08;15.27;;;5.57;;
12707;SDS011;6418;50.824;4.718;2023-03-14T11:03:49;20.73;;;5.73;;
12707;SDS011;6418;50.824;4.718;2023-03-14T11:06:20;14.40;;;5.03;;
12707;SDS011;6418;50.824;4.718;2023-03-14T11:08:55;14.53;;;5.40;;
12707;SDS011;6418;50.824;4.718;2023-03-14T11:11:30;9.87;;;4.97;;
12707;SDS011;6418;50.824;4.718;2023-03-14T11:14:00;12.77;;;4.70;;
12707;SDS011;6418;50.824;4.718;2023-03-14T11:16:38;11.53;;;5.23;;
12707;SDS011;6418;50.824;4.718;2023-03-14T11:19:21;14.27;;;4.20;;
12707;SDS011;6418;50.824;4.718;2023-03-14T11:22:12;13.57;;;4.87;;
12707;SDS011;6418;50.824;4.718;2023-03-14T11:24:55;14.43;;;5.20;;
12707;SDS011;6418;50.824;4.718;2023-03-14T11:27:36;6.47;;;3.47;;
12707;SDS011;6418;50.824;4.718;2023-03-14T11:30:14;7.40;;;3.87;;
12707;SDS011;6418;50.824;4.718;2023-03-14T11:32:45;9.63;;;4.00;;
12707;SDS011;6418;50.824;4.718;2023-03-14T11:35:20;7.53;;;3.93;;
12707;SDS011;6418;50.824;4.718;2023-03-14T11:37:52;3.30;;;3.00;;
12707;SDS011;6418;50.824;4.718;2023-03-14T11:40:22;6.73;;;3.63;;
12707;SDS011;6418;50.824;4.718;2023-03-14T11:42:54;5.37;;;3.30;;
12707;SDS011;6418;50.824;4.718;2023-03-14T11:45:27;6.97;;;3.90;;
12707;SDS011;6418;50.824;4.718;2023-03-14T11:48:07;6.53;;;3.37;;
12707;SDS011;6418;50.824;4.718;2023-03-14T11:50:43;7.60;;;3.70;;
12707;SDS011;6418;50.824;4.718;2023-03-14T11:53:13;8.10;;;3.60;;
12707;SDS011;6418;50.824;4.718;2023-03-14T11:55:44;5.47;;;3.70;;
12707;SDS011;6418;50.824;4.718;2023-03-14T11:58:13;8.70;;;3.40;;
12707;SDS011;6418;50.824;4.718;2023-03-14T12:00:43;8.03;;;3.90;;
12707;SDS011;6418;50.824;4.718;2023-03-14T12:03:14;5.27;;;3.50;;
12707;SDS011;6418;50.824;4.718;2023-03-14T12:05:50;8.77;;;3.77;;
12707;SDS011;6418;50.824;4.718;2023-03-14T12:11:23;7.63;;;3.27;;
12707;SDS011;6418;50.824;4.718;2023-03-14T12:13:58;4.50;;;3.07;;
12707;SDS011;6418;50.824;4.718;2023-03-14T12:16:31;4.63;;;2.93;;
12707;SDS011;6418;50.824;4.718;2023-03-14T12:22:12;6.63;;;3.00;;
12707;SDS011;6418;50.824;4.718;2023-03-14T12:24:48;3.40;;;3.07;;
12707;SDS011;6418;50.824;4.718;2023-03-14T12:27:40;3.73;;;3.00;;
12707;SDS011;6418;50.824;4.718;2023-03-14T12:30:25;3.97;;;2.53;;
12707;SDS011;6418;50.824;4.718;2023-03-14T12:35:58;2.87;;;2.70;;
12707;SDS011;6418;50.824;4.718;2023-03-14T12:39:01;4.97;;;3.00;;
12707;SDS011;6418;50.824;4.718;2023-03-14T12:41:37;3.33;;;2.90;;
12707;SDS011;6418;50.824;4.718;2023-03-14T12:50:13;5.70;;;3.53;;
12707;SDS011;6418;50.824;4.718;2023-03-14T12:52:47;6.57;;;3.60;;
12707;SDS011;6418;50.824;4.718;2023-03-14T12:55:32;6.07;;;3.60;;
12707;SDS011;6418;50.824;4.718;2023-03-14T12:58:03;5.83;;;3.50;;
12707;SDS011;6418;50.824;4.718;2023-03-14T13:00:38;6.47;;;3.47;;
12707;SDS011;6418;50.824;4.718;2023-03-14T13:03:15;4.47;;;3.63;;
12707;SDS011;6418;50.824;4.718;2023-03-14T13:05:53;5.80;;;3.90;;
12707;SDS011;6418;50.824;4.718;2023-03-14T13:08:32;5.03;;;3.60;;
12707;SDS011;6418;50.824;4.718;2023-03-14T13:11:03;9.23;;;4.03;;
12707;SDS011;6418;50.824;4.718;2023-03-14T13:13:33;7.67;;;4.03;;
12707;SDS011;6418;50.824;4.718;2023-03-14T13:16:02;9.70;;;4.23;;
12707;SDS011;6418;50.824;4.718;2023-03-14T13:18:30;7.87;;;4.40;;
12707;SDS011;6418;50.824;4.718;2023-03-14T13:21:02;8.93;;;4.67;;
12707;SDS011;6418;50.824;4.718;2023-03-14T13:23:32;12.90;;;4.97;;
12707;SDS011;6418;50.824;4.718;2023-03-14T13:26:05;7.13;;;4.40;;
12707;SDS011;6418;50.824;4.718;2023-03-14T13:28:37;10.57;;;4.70;;
12707;SDS011;6418;50.824;4.718;2023-03-14T13:31:04;12.47;;;5.00;;
12707;SDS011;6418;50.824;4.718;2023-03-14T13:33:32;14.30;;;5.30;;
12707;SDS011;6418;50.824;4.718;2023-03-14T13:36:01;11.07;;;5.20;;
12707;SDS011;6418;50.824;4.718;2023-03-14T13:38:30;10.40;;;4.90;;
12707;SDS011;6418;50.824;4.718;2023-03-14T13:40:59;11.33;;;5.10;;
12707;SDS011;6418;50.824;4.718;2023-03-14T13:43:31;9.30;;;5.40;;
12707;SDS011;6418;50.824;4.718;2023-03-14T13:46:04;9.13;;;4.63;;
12707;SDS011;6418;50.824;4.718;2023-03-14T13:48:33;11.50;;;4.70;;
12707;SDS011;6418;50.824;4.718;2023-03-14T13:51:03;6.67;;;4.17;;
12707;SDS011;6418;50.824;4.718;2023-03-14T13:53:32;3.90;;;3.23;;
12707;SDS011;6418;50.824;4.718;2023-03-14T13:56:08;7.80;;;3.37;;
12707;SDS011;6418;50.824;4.718;2023-03-14T13:58:38;5.93;;;3.73;;
12707;SDS011;6418;50.824;4.718;2023-03-14T14:01:10;9.17;;;3.27;;
12707;SDS011;6418;50.824;4.718;2023-03-14T14:03:40;9.37;;;3.57;;
12707;SDS011;6418;50.824;4.718;2023-03-14T14:06:10;12.50;;;4.57;;
12707;SDS011;6418;50.824;4.718;2023-03-14T14:08:45;8.37;;;3.37;;
12707;SDS011;6418;50.824;4.718;2023-03-14T14:11:15;11.53;;;3.30;;
12707;SDS011;6418;50.824;4.718;2023-03-14T14:13:49;10.77;;;3.43;;
12707;SDS011;6418;50.824;4.718;2023-03-14T14:16:17;22.53;;;5.60;;
12707;SDS011;6418;50.824;4.718;2023-03-14T14:18:50;13.20;;;3.50;;
12707;SDS011;6418;50.824;4.718;2023-03-14T14:21:18;17.03;;;3.67;;
12707;SDS011;6418;50.824;4.718;2023-03-14T14:23:45;9.00;;;3.47;;
12707;SDS011;6418;50.824;4.718;2023-03-14T14:26:13;11.60;;;3.43;;
12707;SDS011;6418;50.824;4.718;2023-03-14T14:28:42;16.83;;;4.00;;
12707;SDS011;6418;50.824;4.718;2023-03-14T14:31:18;9.20;;;3.67;;
12707;SDS011;6418;50.824;4.718;2023-03-14T14:33:53;8.10;;;3.67;;
12707;SDS011;6418;50.824;4.718;2023-03-14T14:36:23;11.33;;;3.80;;
12707;SDS011;6418;50.824;4.718;2023-03-14T14:38:52;5.33;;;3.10;;
12707;SDS011;6418;50.824;4.718;2023-03-14T14:41:20;3.60;;;3.07;;
12707;SDS011;6418;50.824;4.718;2023-03-14T14:43:47;4.67;;;2.87;;
12707;SDS011;6418;50.824;4.718;2023-03-14T14:46:16;6.07;;;3.80;;
12707;SDS011;6418;50.824;4.718;2023-03-14T14:48:46;3.53;;;2.97;;
12707;SDS011;6418;50.824;4.718;2023-03-14T14:51:23;6.60;;;3.57;;
12707;SDS011;6418;50.824;4.718;2023-03-14T14:54:04;7.63;;;4.00;;
12707;SDS011;6418;50.824;4.718;2023-03-14T14:56:37;7.63;;;3.63;;
12707;SDS011;6418;50.824;4.718;2023-03-14T14:59:05;6.57;;;3.77;;
12707;SDS011;6418;50.824;4.718;2023-03-14T15:01:35;7.50;;;3.60;;
12707;SDS011;6418;50.824;4.718;2023-03-14T15:04:04;5.93;;;3.87;;
12707;SDS011;6418;50.824;4.718;2023-03-14T15:06:38;10.93;;;3.77;;
12707;SDS011;6418;50.824;4.718;2023-03-14T15:09:05;19.73;;;4.60;;
12707;SDS011;6418;50.824;4.718;2023-03-14T15:11:35;5.50;;;3.40;;
12707;SDS011;6418;50.824;4.718;2023-03-14T15:14:02;9.17;;;3.63;;
12707;SDS011;6418;50.824;4.718;2023-03-14T15:16:31;3.23;;;2.60;;
12707;SDS011;6418;50.824;4.718;2023-03-14T15:19:00;12.63;;;3.60;;
12707;SDS011;6418;50.824;4.718;2023-03-14T15:21:30;4.07;;;2.83;;
12707;SDS011;6418;50.824;4.718;2023-03-14T15:23:58;8.60;;;3.00;;
12707;SDS011;6418;50.824;4.718;2023-03-14T15:26:26;2.70;;;2.50;;
12707;SDS011;6418;50.824;4.718;2023-03-14T15:28:54;7.10;;;3.90;;
12707;SDS011;6418;50.824;4.718;2023-03-14T15:31:21;4.80;;;2.93;;
12707;SDS011;6418;50.824;4.718;2023-03-14T15:33:48;3.87;;;3.43;;
12707;SDS011;6418;50.824;4.718;2023-03-14T15:36:21;11.87;;;3.23;;
12707;SDS011;6418;50.824;4.718;2023-03-14T15:38:49;3.60;;;2.73;;
12707;SDS011;6418;50.824;4.718;2023-03-14T15:41:17;7.87;;;3.37;;
12707;SDS011;6418;50.824;4.718;2023-03-14T15:43:45;7.13;;;2.90;;